Time;durP1;ratioP1;P1;durP2;ratioP2;P2;SDS_P1;SDS_P2;PMS_P1;PMS_P2;Temp;Humidity;BMP_temperature;BMP_pressure;BME280_temperature;BME280_humidity;BME280_pressure;Samples;Min_cycle;Max_cycle;Signal;HPM_P1;HPM_P2
2022/02/15 00:01:16;;;;;;;12.30;7.72;;;;;;;;;;4994182;28;20022;-36
2022/02/15 00:03:42;;;;;;;16.10;7.28;;;;;;;;;;4994304;28;20040;-36
2022/02/15 00:06:07;;;;;;;15.18;8.43;;;;;;;;;;4994207;28;20457;-36
2022/02/15 00:08:33;;;;;;;16.88;8.55;;;;;;;;;;4993988;28;20370;-35
2022/02/15 00:10:58;;;;;;;15.75;7.22;;;;;;;;;;4993948;28;20026;-36
2022/02/15 00:13:23;;;;;;;11.15;6.82;;;;;;;;;;4993848;28;20053;-36
2022/02/15 00:15:49;;;;;;;16.17;7.85;;;;;;;;;;4993844;28;20515;-36
2022/02/15 00:18:14;;;;;;;10.88;6.95;;;;;;;;;;4993905;28;20029;-36
2022/02/15 00:20:41;;;;;;;14.93;7.55;;;;;;;;;;4993701;28;20512;-37
2022/02/15 00:23:07;;;;;;;12.55;6.78;;;;;;;;;;4992908;28;20551;-36
2022/02/15 00:25:32;;;;;;;13.57;8.07;;;;;;;;;;4993779;28;20039;-36
2022/02/15 00:27:58;;;;;;;15.10;8.15;;;;;;;;;;4993752;28;20093;-36
2022/02/15 00:30:24;;;;;;;14.70;8.52;;;;;;;;;;4993705;28;20105;-36
2022/02/15 00:32:49;;;;;;;13.75;8.68;;;;;;;;;;4993549;28;20421;-36
2022/02/15 00:35:15;;;;;;;14.00;7.47;;;;;;;;;;4993586;28;20034;-36
2022/02/15 00:37:42;;;;;;;15.68;8.68;;;;;;;;;;4993457;28;20029;-36
2022/02/15 00:40:08;;;;;;;13.98;7.20;;;;;;;;;;4991900;28;20124;-36
2022/02/15 00:42:33;;;;;;;11.52;7.93;;;;;;;;;;4993315;28;20042;-35
2022/02/15 00:45:00;;;;;;;13.60;7.82;;;;;;;;;;4993333;28;20034;-36
2022/02/15 00:47:26;;;;;;;10.23;6.60;;;;;;;;;;4993114;28;20035;-36
2022/02/15 00:49:51;;;;;;;16.17;6.80;;;;;;;;;;4993468;28;20054;-36
2022/02/15 00:52:17;;;;;;;10.18;6.57;;;;;;;;;;4993390;28;20037;-36
2022/02/15 00:54:42;;;;;;;12.73;7.03;;;;;;;;;;4993148;28;20072;-36
2022/02/15 00:57:10;;;;;;;12.60;6.90;;;;;;;;;;4993124;28;20037;-36
2022/02/15 00:59:36;;;;;;;11.52;6.85;;;;;;;;;;4991602;28;20524;-38
2022/02/15 01:02:01;;;;;;;10.52;6.03;;;;;;;;;;4991675;28;20026;-36
2022/02/15 01:04:27;;;;;;;9.07;6.13;;;;;;;;;;4991532;28;20477;-36
2022/02/15 01:10:20;;;;;;;15.13;8.13;;;;;;;;;;4992806;28;20083;-36
2022/02/15 01:12:46;;;;;;;15.10;6.90;;;;;;;;;;4992801;28;20037;-36
2022/02/15 01:15:11;;;;;;;11.70;7.18;;;;;;;;;;4991698;28;20072;-36
2022/02/15 01:17:37;;;;;;;17.73;8.05;;;;;;;;;;4992668;28;20151;-37
2022/02/15 01:20:03;;;;;;;10.90;8.02;;;;;;;;;;4992541;28;20034;-36
2022/02/15 01:22:28;;;;;;;10.90;7.18;;;;;;;;;;4992495;28;20456;-36
2022/02/15 01:24:54;;;;;;;13.65;7.13;;;;;;;;;;4992802;28;20109;-36
2022/02/15 01:27:20;;;;;;;14.30;8.40;;;;;;;;;;4975148;28;20524;-36
2022/02/15 01:29:45;;;;;;;15.18;8.25;;;;;;;;;;4992407;28;20026;-36
2022/02/15 01:32:15;;;;;;;15.23;7.63;;;;;;;;;;4991036;28;20041;-36
2022/02/15 01:34:40;;;;;;;12.60;8.32;;;;;;;;;;4990383;28;20455;-36
2022/02/15 01:37:06;;;;;;;12.68;6.75;;;;;;;;;;4992267;28;20040;-36
2022/02/15 01:39:32;;;;;;;10.20;7.28;;;;;;;;;;4992228;28;20064;-37
2022/02/15 01:41:59;;;;;;;12.07;6.78;;;;;;;;;;4991112;28;20031;-36
2022/02/15 01:44:25;;;;;;;15.20;7.55;;;;;;;;;;4990909;28;20090;-36
2022/02/15 01:46:51;;;;;;;15.98;7.57;;;;;;;;;;4992523;28;20042;-36
2022/02/15 01:49:16;;;;;;;12.98;7.85;;;;;;;;;;4990859;28;20034;-36
2022/02/15 01:51:42;;;;;;;10.82;6.38;;;;;;;;;;4990883;28;20168;-36
2022/02/15 01:54:08;;;;;;;11.15;6.50;;;;;;;;;;4992151;28;20457;-36
2022/02/15 01:56:34;;;;;;;13.95;8.02;;;;;;;;;;4990859;28;20036;-36
2022/02/15 01:59:03;;;;;;;14.13;6.82;;;;;;;;;;4990837;28;20553;-36
2022/02/15 02:01:29;;;;;;;10.95;6.85;;;;;;;;;;4990788;28;20511;-36
2022/02/15 02:05:47;;;;;;;14.48;7.05;;;;;;;;;;4990756;28;20033;-36
2022/02/15 02:06:55;;;;;;;10.50;6.65;;;;;;;;;;4990720;28;20117;-35
2022/02/15 02:09:21;;;;;;;12.52;6.80;;;;;;;;;;4990632;28;20022;-36
2022/02/15 02:11:47;;;;;;;13.55;6.97;;;;;;;;;;4990707;28;20037;-36
2022/02/15 02:14:19;;;;;;;10.23;6.50;;;;;;;;;;4990601;28;20034;-36
2022/02/15 02:16:48;;;;;;;16.45;8.55;;;;;;;;;;4990618;28;20034;-35
2022/02/15 02:19:16;;;;;;;13.82;6.93;;;;;;;;;;4990463;28;20048;-37
2022/02/15 02:21:42;;;;;;;16.83;7.93;;;;;;;;;;4990718;28;20432;-37
2022/02/15 02:24:10;;;;;;;18.42;8.30;;;;;;;;;;4990503;28;20501;-36
2022/02/15 02:26:41;;;;;;;11.10;7.38;;;;;;;;;;4990600;28;20045;-36
2022/02/15 02:29:07;;;;;;;15.43;7.78;;;;;;;;;;4990335;28;20030;-36
2022/02/15 02:31:37;;;;;;;12.48;7.03;;;;;;;;;;4990600;28;20177;-36
2022/02/15 02:34:06;;;;;;;15.15;7.80;;;;;;;;;;4974755;28;20508;-36
2022/02/15 02:36:41;;;;;;;16.40;8.02;;;;;;;;;;4990456;28;20030;-36
2022/02/15 02:39:07;;;;;;;11.88;7.63;;;;;;;;;;4990206;28;20109;-36
2022/02/15 02:41:32;;;;;;;16.90;7.53;;;;;;;;;;4990491;28;20054;-36
2022/02/15 02:43:58;;;;;;;15.55;8.05;;;;;;;;;;4990486;28;20065;-39
2022/02/15 02:46:23;;;;;;;11.70;6.75;;;;;;;;;;4991637;28;20052;-36
2022/02/15 02:48:49;;;;;;;14.18;7.95;;;;;;;;;;4995459;28;20065;-36
2022/02/15 02:51:15;;;;;;;12.52;7.13;;;;;;;;;;4995341;28;20025;-36
2022/02/15 02:53:40;;;;;;;9.07;6.85;;;;;;;;;;4995389;28;20500;-36
2022/02/15 02:56:06;;;;;;;19.20;7.95;;;;;;;;;;4995290;28;20023;-36
2022/02/15 02:58:35;;;;;;;13.23;6.68;;;;;;;;;;4993894;28;20062;-36
2022/02/15 03:01:00;;;;;;;10.15;6.10;;;;;;;;;;4994069;28;20058;-36
2022/02/15 03:03:32;;;;;;;10.88;6.55;;;;;;;;;;4995234;28;20022;-36
2022/02/15 03:05:58;;;;;;;12.60;7.07;;;;;;;;;;4995203;28;20030;-36
2022/02/15 03:08:24;;;;;;;11.07;6.63;;;;;;;;;;4993814;28;20045;-36
2022/02/15 03:10:51;;;;;;;11.02;7.15;;;;;;;;;;4995241;28;20046;-36
2022/02/15 03:13:26;;;;;;;10.52;6.25;;;;;;;;;;4993791;28;20358;-36
2022/02/15 03:15:52;;;;;;;11.65;6.65;;;;;;;;;;4994915;28;20815;-36
2022/02/15 03:18:20;;;;;;;14.30;7.15;;;;;;;;;;4993480;28;20077;-36
2022/02/15 03:20:45;;;;;;;11.48;6.68;;;;;;;;;;4993649;28;20042;-36
2022/02/15 03:23:11;;;;;;;10.68;6.35;;;;;;;;;;4994688;28;20038;-36
2022/02/15 03:25:37;;;;;;;12.48;5.47;;;;;;;;;;4993557;28;20038;-36
2022/02/15 03:28:04;;;;;;;18.20;6.97;;;;;;;;;;4977489;28;20026;-36
2022/02/15 03:30:30;;;;;;;9.35;6.68;;;;;;;;;;4994693;28;20045;-36
2022/02/15 03:32:56;;;;;;;12.35;6.38;;;;;;;;;;4994621;28;20113;-36
2022/02/15 03:35:22;;;;;;;9.95;6.43;;;;;;;;;;4993269;28;20080;-36
2022/02/15 03:37:56;;;;;;;9.55;5.38;;;;;;;;;;4993384;28;20037;-36
2022/02/15 03:40:22;;;;;;;8.48;6.13;;;;;;;;;;4993025;28;20030;-36
2022/02/15 03:43:06;;;;;;;11.23;5.63;;;;;;;;;;4994552;28;20145;-35
2022/02/15 03:45:32;;;;;;;14.75;5.45;;;;;;;;;;4993474;28;20557;-36
2022/02/15 03:48:10;;;;;;;9.30;5.70;;;;;;;;;;4993059;28;20029;-35
2022/02/15 03:50:37;;;;;;;10.23;6.55;;;;;;;;;;4993111;28;20081;-36
2022/02/15 03:53:04;;;;;;;9.98;5.97;;;;;;;;;;4993023;28;20026;-35
2022/02/15 03:55:32;;;;;;;11.02;6.75;;;;;;;;;;4993006;28;20023;-36
2022/02/15 03:57:57;;;;;;;11.48;5.00;;;;;;;;;;4992003;28;20018;-36
2022/02/15 04:00:24;;;;;;;8.95;5.55;;;;;;;;;;4992763;28;20049;-36
2022/02/15 04:02:59;;;;;;;10.05;5.22;;;;;;;;;;4992885;28;20038;-36
2022/02/15 04:05:26;;;;;;;9.13;5.88;;;;;;;;;;4992794;28;20030;-36
2022/02/15 04:07:51;;;;;;;15.00;6.05;;;;;;;;;;4992729;28;20018;-35
2022/02/15 04:10:20;;;;;;;11.27;5.10;;;;;;;;;;4976556;28;20140;-36
2022/02/15 04:12:47;;;;;;;9.48;5.65;;;;;;;;;;4992655;28;20029;-35
2022/02/15 04:15:13;;;;;;;14.55;5.50;;;;;;;;;;4992494;28;20034;-36
2022/02/15 04:17:44;;;;;;;8.27;5.32;;;;;;;;;;4992573;28;20141;-36
2022/02/15 04:20:12;;;;;;;9.13;5.00;;;;;;;;;;4992356;28;20592;-36
2022/02/15 04:22:37;;;;;;;10.25;5.28;;;;;;;;;;4992304;28;20405;-36
2022/02/15 04:25:04;;;;;;;12.48;6.20;;;;;;;;;;4992402;28;20027;-35
2022/02/15 04:27:30;;;;;;;9.63;5.65;;;;;;;;;;4992335;28;20022;-35
2022/02/15 04:29:56;;;;;;;9.75;5.95;;;;;;;;;;4993342;28;20044;-36
2022/02/15 04:32:22;;;;;;;12.48;6.32;;;;;;;;;;4992229;28;20073;-36
2022/02/15 04:34:48;;;;;;;9.95;5.03;;;;;;;;;;4992277;28;20034;-36
2022/02/15 04:37:14;;;;;;;12.45;5.78;;;;;;;;;;4992028;28;20015;-36
2022/02/15 04:39:39;;;;;;;11.02;5.25;;;;;;;;;;4992398;28;20046;-39
2022/02/15 04:42:08;;;;;;;9.10;5.57;;;;;;;;;;4992049;28;20028;-36
2022/02/15 04:44:34;;;;;;;9.73;4.55;;;;;;;;;;4992043;28;20030;-36
2022/02/15 04:47:01;;;;;;;12.90;5.15;;;;;;;;;;4991998;28;20072;-36
2022/02/15 04:49:27;;;;;;;6.25;4.32;;;;;;;;;;4991810;28;20034;-36
2022/02/15 04:51:53;;;;;;;8.35;3.97;;;;;;;;;;4991939;28;20468;-36
2022/02/15 04:54:21;;;;;;;10.57;5.22;;;;;;;;;;4991750;28;20030;-36
2022/02/15 04:56:49;;;;;;;12.25;5.32;;;;;;;;;;4993116;28;20019;-35
2022/02/15 04:59:15;;;;;;;9.20;4.50;;;;;;;;;;4991613;28;20133;-35
2022/02/15 05:01:41;;;;;;;8.80;4.30;;;;;;;;;;4993267;28;20105;-37
2022/02/15 05:06:52;;;;;;;10.00;4.75;;;;;;;;;;4991694;28;20039;-36
2022/02/15 05:09:19;;;;;;;15.10;6.28;;;;;;;;;;4991436;28;20432;-36
2022/02/15 05:11:45;;;;;;;11.88;5.15;;;;;;;;;;4991526;28;20028;-35
2022/02/15 05:14:11;;;;;;;9.13;4.22;;;;;;;;;;4991472;28;20067;-36
2022/02/15 05:16:39;;;;;;;11.23;4.90;;;;;;;;;;4991397;28;20027;-36
2022/02/15 05:19:15;;;;;;;10.95;5.38;;;;;;;;;;4992729;28;20040;-36
2022/02/15 05:21:41;;;;;;;10.05;5.30;;;;;;;;;;4991410;28;20097;-36
2022/02/15 05:24:07;;;;;;;9.50;5.03;;;;;;;;;;4991366;28;20035;-36
2022/02/15 05:26:46;;;;;;;8.40;4.55;;;;;;;;;;4991307;28;20042;-36
2022/02/15 05:29:23;;;;;;;10.50;5.55;;;;;;;;;;4990996;28;20416;-35
2022/02/15 05:31:50;;;;;;;6.55;4.05;;;;;;;;;;4991256;28;20027;-36
2022/02/15 05:34:16;;;;;;;6.75;4.45;;;;;;;;;;4991115;28;20073;-35
2022/02/15 05:36:45;;;;;;;7.80;3.92;;;;;;;;;;4991178;28;20127;-36
2022/02/15 05:39:12;;;;;;;9.15;4.60;;;;;;;;;;4990909;28;20030;-36
2022/02/15 05:41:45;;;;;;;;;;;;;;;;;;4991498;28;20038;-35
2022/02/15 05:44:11;;;;;;;9.05;4.53;;;;;;;;;;4991009;28;19913;-36
2022/02/15 05:46:36;;;;;;;6.68;3.85;;;;;;;;;;4992307;28;20054;-36
2022/02/15 05:49:03;;;;;;;12.98;4.53;;;;;;;;;;4992318;28;20041;-36
2022/02/15 05:51:42;;;;;;;6.30;4.45;;;;;;;;;;4991031;28;20638;-36
2022/02/15 05:54:21;;;;;;;10.82;4.55;;;;;;;;;;4990796;28;20038;-35
2022/02/15 05:56:49;;;;;;;8.63;4.30;;;;;;;;;;4990919;28;20027;-36
2022/02/15 05:59:31;;;;;;;7.35;4.90;;;;;;;;;;4976848;28;20034;-35
2022/02/15 06:02:04;;;;;;;9.73;4.32;;;;;;;;;;4990871;28;20038;-36
2022/02/15 06:04:40;;;;;;;9.68;5.32;;;;;;;;;;4990845;28;20461;-36
2022/02/15 06:07:11;;;;;;;9.75;4.88;;;;;;;;;;4990634;28;20046;-36
2022/02/15 06:09:37;;;;;;;6.72;4.75;;;;;;;;;;4990643;28;20092;-36
2022/02/15 06:12:04;;;;;;;9.13;5.25;;;;;;;;;;4990743;28;20030;-36
2022/02/15 06:14:36;;;;;;;9.43;5.07;;;;;;;;;;4990790;28;20061;-36
2022/02/15 06:17:05;;;;;;;9.23;4.70;;;;;;;;;;4990607;28;20030;-35
2022/02/15 06:19:31;;;;;;;9.95;5.72;;;;;;;;;;4990491;28;20041;-36
2022/02/15 06:21:56;;;;;;;9.52;4.63;;;;;;;;;;4992791;28;20027;-36
2022/02/15 06:24:28;;;;;;;12.77;5.47;;;;;;;;;;4994677;28;20527;-36
2022/02/15 06:27:04;;;;;;;10.07;4.97;;;;;;;;;;4994641;28;20030;-36
2022/02/15 06:29:30;;;;;;;8.07;5.13;;;;;;;;;;4995770;28;20101;-36
2022/02/15 06:32:01;;;;;;;8.70;5.57;;;;;;;;;;4994481;28;20535;-36
2022/02/15 06:34:27;;;;;;;8.85;5.25;;;;;;;;;;4996007;28;20034;-36
2022/02/15 06:36:57;;;;;;;8.65;4.65;;;;;;;;;;4994468;28;20034;-36
2022/02/15 06:39:25;;;;;;;13.23;4.55;;;;;;;;;;4994203;28;20432;-36
2022/02/15 06:41:54;;;;;;;6.22;4.95;;;;;;;;;;4994393;28;20468;-36
2022/02/15 06:44:20;;;;;;;10.63;5.63;;;;;;;;;;4994232;28;20073;-35
2022/02/15 06:46:48;;;;;;;9.43;5.57;;;;;;;;;;4994505;28;20072;-36
2022/02/15 06:49:40;;;;;;;11.48;4.65;;;;;;;;;;4994339;28;20053;-35
2022/02/15 06:52:23;;;;;;;17.30;5.63;;;;;;;;;;4994122;28;20057;-35
2022/02/15 06:55:00;;;;;;;10.32;6.03;;;;;;;;;;4979694;28;20096;-35
2022/02/15 06:57:32;;;;;;;14.95;7.38;;;;;;;;;;4994012;28;20113;-35
2022/02/15 06:59:58;;;;;;;11.40;6.00;;;;;;;;;;4995269;28;20118;-35
2022/02/15 07:02:24;;;;;;;14.55;7.45;;;;;;;;;;4993925;28;20022;-36
2022/02/15 07:04:50;;;;;;;10.93;5.97;;;;;;;;;;4993971;28;20416;-35
2022/02/15 07:07:15;;;;;;;14.98;6.85;;;;;;;;;;4977671;28;20026;-36
2022/02/15 07:09:47;;;;;;;27.02;14.55;;;;;;;;;;4993839;28;20030;-35
2022/02/15 07:12:20;;;;;;;16.20;7.40;;;;;;;;;;4995063;28;20070;-35
2022/02/15 07:14:54;;;;;;;8.52;5.28;;;;;;;;;;4993809;28;20105;-35
2022/02/15 07:17:27;;;;;;;13.80;5.75;;;;;;;;;;4993692;28;20125;-35
2022/02/15 07:19:53;;;;;;;9.07;4.85;;;;;;;;;;4993407;28;20137;-35
2022/02/15 07:22:48;;;;;;;9.23;5.15;;;;;;;;;;4992559;28;20090;-35
2022/02/15 07:25:29;;;;;;;8.48;5.93;;;;;;;;;;4993654;28;20105;-35
2022/02/15 07:28:16;;;;;;;10.80;5.80;;;;;;;;;;4993422;28;20118;-36
2022/02/15 07:30:46;;;;;;;7.22;4.32;;;;;;;;;;4993496;28;20034;-35
2022/02/15 07:33:17;;;;;;;5.32;4.18;;;;;;;;;;4991956;28;20061;-36
2022/02/15 07:35:43;;;;;;;10.93;5.47;;;;;;;;;;4993456;28;20070;-36
2022/02/15 07:38:09;;;;;;;7.93;4.68;;;;;;;;;;4994859;28;20034;-35
2022/02/15 07:40:34;;;;;;;9.85;4.95;;;;;;;;;;4994444;28;20045;-36
2022/02/15 07:43:00;;;;;;;9.23;5.20;;;;;;;;;;4994564;28;20015;-35
2022/02/15 07:45:41;;;;;;;6.97;3.90;;;;;;;;;;4994862;28;20038;-35
2022/02/15 07:48:07;;;;;;;7.20;4.55;;;;;;;;;;4994428;28;20168;-36
2022/02/15 07:50:34;;;;;;;8.70;3.88;;;;;;;;;;4994339;28;20023;-35
2022/02/15 07:53:00;;;;;;;10.20;6.13;;;;;;;;;;4993181;28;20201;-35
2022/02/15 07:55:27;;;;;;;8.15;5.05;;;;;;;;;;4992900;28;20113;-36
2022/02/15 07:57:52;;;;;;;8.57;4.55;;;;;;;;;;4994215;28;20145;-36
2022/02/15 08:00:20;;;;;;;7.80;4.07;;;;;;;;;;4994089;28;20041;-36
2022/02/15 08:02:48;;;;;;;9.15;4.45;;;;;;;;;;4994172;28;20109;-35
2022/02/15 08:05:14;;;;;;;9.60;4.53;;;;;;;;;;4994127;28;20038;-36
2022/02/15 08:07:45;;;;;;;6.78;4.55;;;;;;;;;;4992834;28;20102;-35
2022/02/15 08:10:11;;;;;;;9.00;4.53;;;;;;;;;;4993917;28;20069;-36
2022/02/15 08:12:36;;;;;;;6.85;3.60;;;;;;;;;;4994338;28;20027;-35
2022/02/15 08:15:02;;;;;;;10.85;4.80;;;;;;;;;;4993952;28;20452;-36
2022/02/15 08:17:27;;;;;;;7.82;4.13;;;;;;;;;;4993822;28;20042;-36
2022/02/15 08:19:53;;;;;;;9.45;4.65;;;;;;;;;;4993738;28;20121;-36
2022/02/15 08:22:20;;;;;;;9.55;4.18;;;;;;;;;;4993295;28;20058;-35
2022/02/15 08:24:46;;;;;;;7.70;3.88;;;;;;;;;;4993722;28;20489;-36
2022/02/15 08:27:11;;;;;;;8.80;4.38;;;;;;;;;;4993656;28;20097;-35
2022/02/15 08:29:38;;;;;;;6.70;4.20;;;;;;;;;;4993685;28;20485;-36
2022/02/15 08:32:05;;;;;;;9.80;4.25;;;;;;;;;;4993493;28;20075;-35
2022/02/15 08:34:32;;;;;;;5.07;3.97;;;;;;;;;;4993486;28;20400;-36
2022/02/15 08:36:58;;;;;;;6.00;3.35;;;;;;;;;;4993613;28;20042;-36
2022/02/15 08:39:25;;;;;;;7.22;3.58;;;;;;;;;;4993298;28;20483;-35
2022/02/15 08:41:50;;;;;;;5.65;4.43;;;;;;;;;;4993536;28;20401;-36
2022/02/15 08:44:16;;;;;;;6.43;4.45;;;;;;;;;;4992645;28;20061;-36
2022/02/15 08:46:41;;;;;;;11.32;4.05;;;;;;;;;;4992149;28;20034;-36
2022/02/15 08:49:08;;;;;;;8.70;4.25;;;;;;;;;;4993620;28;20092;-35
2022/02/15 08:51:37;;;;;;;6.55;3.88;;;;;;;;;;4993402;28;20021;-35
2022/02/15 08:54:03;;;;;;;9.20;4.63;;;;;;;;;;4993214;28;20507;-35
2022/02/15 08:56:29;;;;;;;9.52;3.90;;;;;;;;;;4993092;28;20022;-35
2022/02/15 08:58:55;;;;;;;9.30;3.13;;;;;;;;;;4993003;28;20041;-36
2022/02/15 09:01:21;;;;;;;7.30;3.58;;;;;;;;;;4993114;28;20038;-35
2022/02/15 09:03:46;;;;;;;8.80;5.07;;;;;;;;;;4993109;28;20030;-36
2022/02/15 09:06:12;;;;;;;8.15;3.97;;;;;;;;;;4992764;28;20040;-36
2022/02/15 09:08:38;;;;;;;8.88;4.20;;;;;;;;;;4992899;28;20378;-36
2022/02/15 09:11:04;;;;;;;9.52;4.07;;;;;;;;;;4992883;28;20030;-36
2022/02/15 09:13:30;;;;;;;7.03;4.30;;;;;;;;;;4992760;28;20041;-36
2022/02/15 09:15:56;;;;;;;8.82;3.78;;;;;;;;;;4992765;28;20026;-36
2022/02/15 09:18:22;;;;;;;7.82;4.05;;;;;;;;;;4992965;28;20030;-35
2022/02/15 09:20:50;;;;;;;9.00;5.03;;;;;;;;;;4992592;28;20034;-35
2022/02/15 09:23:16;;;;;;;9.20;4.57;;;;;;;;;;4992462;28;20058;-35
2022/02/15 09:25:42;;;;;;;12.27;4.05;;;;;;;;;;4991385;28;20049;-35
2022/02/15 09:28:08;;;;;;;7.63;3.85;;;;;;;;;;4992331;28;20066;-36
2022/02/15 09:30:34;;;;;;;7.38;4.15;;;;;;;;;;4992812;28;20014;-35
2022/02/15 09:33:00;;;;;;;7.68;4.38;;;;;;;;;;4992536;28;20370;-35
2022/02/15 09:35:25;;;;;;;3.78;2.50;;;;;;;;;;4992289;28;20109;-36
2022/02/15 09:37:51;;;;;;;8.15;4.43;;;;;;;;;;4992421;28;20038;-35
2022/02/15 09:40:17;;;;;;;5.68;3.25;;;;;;;;;;4992302;28;20042;-36
2022/02/15 09:42:44;;;;;;;6.07;3.70;;;;;;;;;;4992621;28;20415;-35
2022/02/15 09:45:10;;;;;;;6.28;3.95;;;;;;;;;;4992340;28;20022;-36
2022/02/15 09:47:36;;;;;;;7.20;4.03;;;;;;;;;;4992271;28;20101;-35
2022/02/15 09:50:03;;;;;;;8.05;3.78;;;;;;;;;;4992496;28;20457;-35
2022/02/15 09:52:30;;;;;;;8.40;3.63;;;;;;;;;;4992429;28;20436;-35
2022/02/15 09:54:56;;;;;;;12.07;5.20;;;;;;;;;;4992129;28;20101;-36
2022/02/15 09:57:23;;;;;;;13.85;5.40;;;;;;;;;;4991752;28;20035;-35
2022/02/15 09:59:50;;;;;;;10.75;5.75;;;;;;;;;;4992095;28;20037;-35
2022/02/15 10:02:27;;;;;;;9.10;5.35;;;;;;;;;;4992065;28;20525;-35
2022/02/15 10:04:54;;;;;;;7.25;4.63;;;;;;;;;;4991962;28;20034;-36
2022/02/15 10:07:19;;;;;;;6.30;3.35;;;;;;;;;;4992297;28;20377;-35
2022/02/15 10:09:49;;;;;;;6.97;3.72;;;;;;;;;;4992207;28;20034;-35
2022/02/15 10:12:14;;;;;;;5.70;3.17;;;;;;;;;;4991101;28;20683;-35
2022/02/15 10:14:41;;;;;;;7.47;3.47;;;;;;;;;;4992003;28;20038;-35
2022/02/15 10:17:08;;;;;;;4.90;3.65;;;;;;;;;;4991888;28;20030;-36
2022/02/15 10:19:33;;;;;;;5.03;3.80;;;;;;;;;;4992052;28;20118;-36
2022/02/15 10:22:02;;;;;;;6.68;4.60;;;;;;;;;;4991766;28;20489;-36
2022/02/15 10:24:29;;;;;;;3.90;2.90;;;;;;;;;;4992099;28;20036;-35
2022/02/15 10:26:59;;;;;;;8.85;3.83;;;;;;;;;;4991883;28;20101;-35
2022/02/15 10:29:26;;;;;;;7.05;3.30;;;;;;;;;;4991786;28;20123;-35
2022/02/15 10:31:55;;;;;;;14.70;3.15;;;;;;;;;;4992131;28;20027;-35
2022/02/15 10:34:21;;;;;;;5.57;3.83;;;;;;;;;;4992060;28;20088;-36
2022/02/15 10:36:56;;;;;;;6.25;3.67;;;;;;;;;;4991927;28;20018;-35
2022/02/15 10:39:22;;;;;;;5.53;3.30;;;;;;;;;;4991480;28;20061;-35
2022/02/15 10:41:47;;;;;;;7.15;3.75;;;;;;;;;;4991835;28;20469;-36
2022/02/15 10:44:15;;;;;;;6.03;2.95;;;;;;;;;;4991922;28;20038;-36
2022/02/15 10:46:48;;;;;;;6.38;4.10;;;;;;;;;;4991988;28;20401;-35
2022/02/15 10:49:15;;;;;;;6.00;3.92;;;;;;;;;;4991612;28;20030;-35
2022/02/15 10:51:41;;;;;;;6.00;4.00;;;;;;;;;;4991725;28;20031;-40
2022/02/15 10:54:10;;;;;;;5.53;3.85;;;;;;;;;;4991600;28;20085;-35
2022/02/15 10:56:41;;;;;;;6.32;4.40;;;;;;;;;;4991855;28;20050;-36
2022/02/15 10:59:07;;;;;;;5.35;3.25;;;;;;;;;;4991475;28;20049;-35
2022/02/15 11:01:34;;;;;;;5.88;3.08;;;;;;;;;;4991476;28;20034;-35
2022/02/15 11:04:01;;;;;;;4.95;3.00;;;;;;;;;;4991598;28;20030;-35
2022/02/15 11:06:27;;;;;;;4.57;3.35;;;;;;;;;;4991535;28;20022;-35
2022/02/15 11:08:53;;;;;;;5.43;3.70;;;;;;;;;;4993632;28;20045;-35
2022/02/15 11:11:18;;;;;;;5.35;3.50;;;;;;;;;;4995144;28;20033;-35
2022/02/15 11:13:46;;;;;;;4.45;3.08;;;;;;;;;;4994855;28;20030;-35
2022/02/15 11:16:12;;;;;;;3.50;2.85;;;;;;;;;;4994132;28;20062;-35
2022/02/15 11:18:38;;;;;;;4.80;3.13;;;;;;;;;;4994874;28;20036;-35
2022/02/15 11:21:05;;;;;;;5.07;3.15;;;;;;;;;;4994951;28;20419;-36
2022/02/15 11:23:32;;;;;;;4.68;2.95;;;;;;;;;;4994755;28;20096;-36
2022/02/15 11:26:20;;;;;;;3.88;2.58;;;;;;;;;;4994845;28;20414;-35
2022/02/15 11:28:50;;;;;;;7.25;3.13;;;;;;;;;;4995063;28;20030;-36
2022/02/15 11:31:26;;;;;;;4.10;2.90;;;;;;;;;;4994712;28;20022;-35
2022/02/15 11:33:53;;;;;;;4.40;2.97;;;;;;;;;;4995088;28;20058;-36
2022/02/15 11:36:23;;;;;;;4.65;2.88;;;;;;;;;;4994574;28;20026;-35
2022/02/15 11:38:51;;;;;;;4.80;2.45;;;;;;;;;;4994869;28;20037;-36
2022/02/15 11:41:18;;;;;;;4.32;2.53;;;;;;;;;;4994815;28;20034;-36
2022/02/15 11:43:52;;;;;;;2.90;2.15;;;;;;;;;;4994539;28;20081;-36
2022/02/15 11:46:26;;;;;;;5.55;2.85;;;;;;;;;;4994725;28;20389;-36
2022/02/15 11:48:51;;;;;;;5.53;3.15;;;;;;;;;;4994426;28;20133;-35
2022/02/15 11:51:17;;;;;;;2.90;2.35;;;;;;;;;;4994252;28;20105;-36
2022/02/15 11:53:44;;;;;;;3.65;2.10;;;;;;;;;;4994369;28;20034;-35
2022/02/15 11:56:12;;;;;;;3.15;2.30;;;;;;;;;;4994412;28;20022;-36
2022/02/15 11:58:48;;;;;;;3.80;2.22;;;;;;;;;;4994282;28;20497;-36
2022/02/15 12:01:23;;;;;;;2.78;1.88;;;;;;;;;;4994301;28;20053;-35
2022/02/15 12:03:51;;;;;;;2.25;1.80;;;;;;;;;;4994173;28;20034;-36
2022/02/15 12:06:21;;;;;;;2.45;2.17;;;;;;;;;;4994034;28;20026;-36
2022/02/15 12:08:56;;;;;;;2.53;1.73;;;;;;;;;;4994063;28;20045;-35
2022/02/15 12:11:40;;;;;;;2.42;1.85;;;;;;;;;;4994005;28;20064;-36
2022/02/15 12:14:06;;;;;;;1.70;1.50;;;;;;;;;;4993963;28;20043;-35
2022/02/15 12:16:46;;;;;;;2.20;2.00;;;;;;;;;;4994204;28;20038;-35
2022/02/15 12:19:21;;;;;;;2.13;1.45;;;;;;;;;;4992949;28;20046;-36
2022/02/15 12:21:47;;;;;;;2.03;1.45;;;;;;;;;;4993917;28;20030;-35
2022/02/15 12:24:13;;;;;;;1.08;0.98;;;;;;;;;;4993770;28;20056;-35
2022/02/15 12:26:45;;;;;;;1.90;1.70;;;;;;;;;;4993776;28;20081;-35
2022/02/15 12:29:11;;;;;;;3.20;1.30;;;;;;;;;;4993953;28;20042;-36
2022/02/15 12:31:37;;;;;;;1.35;1.20;;;;;;;;;;4993647;28;20037;-35
2022/02/15 12:34:05;;;;;;;1.65;1.50;;;;;;;;;;4993553;28;20034;-41
2022/02/15 12:36:30;;;;;;;3.60;1.70;;;;;;;;;;4993847;28;20463;-36
2022/02/15 12:38:56;;;;;;;1.35;1.20;;;;;;;;;;4993781;28;20425;-35
2022/02/15 12:41:22;;;;;;;2.15;1.42;;;;;;;;;;4993179;28;20500;-35
2022/02/15 12:43:55;;;;;;;3.20;1.63;;;;;;;;;;4993569;28;20022;-35
2022/02/15 12:46:21;;;;;;;;;;;;;;;;;;4993691;28;20472;-36
2022/02/15 12:48:46;;;;;;;2.47;1.20;;;;;;;;;;4992074;28;19917;-35
2022/02/15 12:51:12;;;;;;;2.03;1.45;;;;;;;;;;4993325;28;20023;-35
2022/02/15 12:53:38;;;;;;;3.35;1.13;;;;;;;;;;4992067;28;20025;-35
2022/02/15 12:56:05;;;;;;;1.40;1.10;;;;;;;;;;4993265;28;20022;-35
2022/02/15 12:58:32;;;;;;;1.10;1.00;;;;;;;;;;4993078;28;20045;-35
2022/02/15 13:00:58;;;;;;;1.40;1.30;;;;;;;;;;4993022;28;20049;-36
2022/02/15 13:03:23;;;;;;;3.53;1.30;;;;;;;;;;4993045;28;20089;-36
2022/02/15 13:05:49;;;;;;;3.92;1.00;;;;;;;;;;4993286;28;20041;-35
2022/02/15 13:08:19;;;;;;;1.95;1.00;;;;;;;;;;4993221;28;20030;-35
2022/02/15 13:10:54;;;;;;;2.47;1.38;;;;;;;;;;4992918;28;20034;-35
2022/02/15 13:13:24;;;;;;;1.30;1.00;;;;;;;;;;4993134;28;20477;-36
2022/02/15 13:15:54;;;;;;;3.55;1.23;;;;;;;;;;4992717;28;20029;-38
2022/02/15 13:18:19;;;;;;;2.30;1.38;;;;;;;;;;4992755;28;20393;-35
2022/02/15 13:20:50;;;;;;;1.40;1.15;;;;;;;;;;4992705;28;20030;-35
2022/02/15 13:23:15;;;;;;;5.15;0.93;;;;;;;;;;4992561;28;20050;-35
2022/02/15 13:25:42;;;;;;;0.68;0.68;;;;;;;;;;4992753;28;20072;-36
2022/02/15 13:28:08;;;;;;;1.63;1.23;;;;;;;;;;4992390;28;20026;-37
2022/02/15 13:30:33;;;;;;;0.63;0.52;;;;;;;;;;4992803;28;20125;-35
2022/02/15 13:33:03;;;;;;;0.80;0.77;;;;;;;;;;4992840;28;20540;-36
2022/02/15 13:35:29;;;;;;;0.85;0.73;;;;;;;;;;4992419;28;20441;-35
2022/02/15 13:37:57;;;;;;;1.27;1.05;;;;;;;;;;4992643;28;20034;-35
2022/02/15 13:40:22;;;;;;;0.95;0.85;;;;;;;;;;4992084;28;20061;-37
2022/02/15 13:42:48;;;;;;;0.77;0.70;;;;;;;;;;4992446;28;20038;-35
2022/02/15 13:45:14;;;;;;;1.48;1.38;;;;;;;;;;4992210;28;20060;-35
2022/02/15 13:47:41;;;;;;;1.02;0.63;;;;;;;;;;4992269;28;20027;-36
2022/02/15 13:50:06;;;;;;;1.40;0.93;;;;;;;;;;4992577;28;20041;-36
2022/02/15 13:52:36;;;;;;;1.88;1.02;;;;;;;;;;4992386;28;20584;-35
2022/02/15 13:55:03;;;;;;;1.60;1.10;;;;;;;;;;4992056;28;20485;-35
2022/02/15 13:57:28;;;;;;;3.72;1.08;;;;;;;;;;4991719;28;20022;-36
2022/02/15 13:59:54;;;;;;;1.10;0.93;;;;;;;;;;4992316;28;20037;-36
2022/02/15 14:02:19;;;;;;;2.22;1.17;;;;;;;;;;4992179;28;20033;-35
2022/02/15 14:04:45;;;;;;;0.95;0.88;;;;;;;;;;4991872;28;20015;-36
2022/02/15 14:07:11;;;;;;;1.63;1.10;;;;;;;;;;4992047;28;20084;-38
2022/02/15 14:09:36;;;;;;;1.30;1.20;;;;;;;;;;4991965;28;20061;-35
2022/02/15 14:12:03;;;;;;;0.77;0.73;;;;;;;;;;4992090;28;20077;-36
2022/02/15 14:14:28;;;;;;;0.95;0.82;;;;;;;;;;4991993;28;20056;-39
2022/02/15 14:17:37;;;;;;;0.82;0.82;;;;;;;;;;4991801;28;20038;-36
2022/02/15 14:19:40;;;;;;;1.63;0.98;;;;;;;;;;4991837;28;20045;-36
2022/02/15 14:22:05;;;;;;;2.20;1.13;;;;;;;;;;4991633;28;20611;-35
2022/02/15 14:24:31;;;;;;;1.42;1.15;;;;;;;;;;4991571;28;20048;-36
2022/02/15 14:26:57;;;;;;;0.45;0.45;;;;;;;;;;4991938;28;20085;-36
2022/02/15 14:29:22;;;;;;;1.05;0.82;;;;;;;;;;4991810;28;20018;-36
2022/02/15 14:31:48;;;;;;;1.77;0.82;;;;;;;;;;4992197;28;20022;-36
2022/02/15 14:34:14;;;;;;;3.25;0.93;;;;;;;;;;4991977;28;20033;-36
2022/02/15 14:36:39;;;;;;;0.77;0.75;;;;;;;;;;4990728;28;20072;-36
2022/02/15 14:39:05;;;;;;;1.05;0.90;;;;;;;;;;4991712;28;20030;-36
2022/02/15 14:41:31;;;;;;;0.70;0.70;;;;;;;;;;4991733;28;20027;-36
2022/02/15 14:43:57;;;;;;;2.97;2.15;;;;;;;;;;4995993;28;20117;-36
2022/02/15 14:46:26;;;;;;;2.10;1.25;;;;;;;;;;4994272;28;20085;-36
2022/02/15 14:48:52;;;;;;;0.73;0.52;;;;;;;;;;4995716;28;20496;-35